Time;durP1;ratioP1;P1;durP2;ratioP2;P2;SDS_P1;SDS_P2;PMS_P1;PMS_P2;Temp;Humidity;BMP_temperature;BMP_pressure;BME280_temperature;BME280_humidity;BME280_pressure;Samples;Min_cycle;Max_cycle;Signal;HPM_P1;HPM_P2
2023/10/31 00:00:47;;;;;;;14.20;5.30;;;;;;;14.78;73.64;97741.66;234532;214;138985;-62
2023/10/31 00:06:10;;;;;;;13.90;5.40;;;;;;;14.80;73.64;97752.58;234486;214;138524;-62
2023/10/31 00:11:13;;;;;;;11.40;5.70;;;;;;;14.86;73.75;97740.48;234279;215;150116;-62
2023/10/31 00:16:16;;;;;;;11.30;6.00;;;;;;;14.95;73.53;97724.05;234346;214;138752;-62
2023/10/31 00:21:19;;;;;;;13.40;5.40;;;;;;;15.01;73.52;97725.59;234184;215;138094;-62
2023/10/31 00:26:22;;;;;;;12.80;5.70;;;;;;;15.01;73.39;97725.73;234132;215;149935;-63
2023/10/31 00:31:28;;;;;;;14.20;4.30;;;;;;;15.01;73.47;97730.55;234140;215;138923;-62
2023/10/31 00:36:31;;;;;;;7.70;3.80;;;;;;;15.01;73.46;97728.41;234176;215;138500;-62
2023/10/31 00:41:35;;;;;;;12.80;4.60;;;;;;;15.04;73.59;97722.48;234202;215;149468;-62
2023/10/31 00:46:38;;;;;;;8.00;3.90;;;;;;;15.11;73.42;97716.51;234162;215;142745;-62
2023/10/31 00:51:41;;;;;;;8.10;3.90;;;;;;;15.29;73.01;97703.64;234330;215;137790;-62
2023/10/31 00:56:45;;;;;;;10.00;3.60;;;;;;;15.28;72.80;97704.77;234213;215;150114;-62
2023/10/31 01:01:48;;;;;;;9.80;3.20;;;;;;;15.33;72.77;97687.05;234153;215;140766;-63
2023/10/31 01:06:53;;;;;;;8.90;3.40;;;;;;;15.42;72.67;97673.19;234245;215;137086;-63
2023/10/31 01:11:56;;;;;;;11.10;3.50;;;;;;;15.54;72.21;97654.52;234160;215;149395;-63
2023/10/31 01:17:00;;;;;;;11.80;3.10;;;;;;;15.57;71.98;97635.15;234111;215;139029;-63
2023/10/31 01:22:03;;;;;;;6.10;3.20;;;;;;;15.56;71.92;97625.16;234166;216;138220;-62
2023/10/31 01:27:06;;;;;;;8.00;3.20;;;;;;;15.73;71.54;97605.51;234368;215;149842;-62
2023/10/31 01:32:09;;;;;;;6.20;3.30;;;;;;;15.75;71.20;97592.46;234236;215;139351;-63
2023/10/31 01:37:23;;;;;;;8.80;3.50;;;;;;;15.65;71.36;97588.89;234216;215;137573;-62
2023/10/31 01:42:27;;;;;;;11.30;4.30;;;;;;;15.57;71.63;97595.77;234282;215;149405;-62
2023/10/31 01:47:30;;;;;;;11.00;3.90;;;;;;;15.51;71.73;97586.19;234253;215;139740;-63
2023/10/31 01:52:35;;;;;;;10.00;3.50;;;;;;;15.50;71.81;97585.25;234292;215;138874;-62
2023/10/31 01:57:39;;;;;;;6.70;3.10;;;;;;;15.55;71.76;97578.34;234418;215;149873;-62
2023/10/31 02:02:42;;;;;;;10.20;3.60;;;;;;;15.57;71.68;97557.92;234233;215;139426;-63
2023/10/31 02:07:46;;;;;;;7.80;3.20;;;;;;;15.62;71.21;97544.83;234271;216;141019;-63
2023/10/31 02:12:49;;;;;;;9.90;4.30;;;;;;;15.79;70.55;97526.60;234218;216;150719;-64
2023/10/31 02:17:52;;;;;;;16.70;5.20;;;;;;;15.92;69.56;97508.23;234281;215;138897;-63
2023/10/31 02:22:56;;;;;;;12.70;5.50;;;;;;;16.08;69.01;97511.98;234305;215;137523;-62
2023/10/31 02:27:59;;;;;;;17.40;7.30;;;;;;;16.16;68.70;97515.78;234339;215;150254;-62
2023/10/31 02:33:03;;;;;;;15.30;6.70;;;;;;;16.28;68.26;97501.19;234319;215;152160;-63
2023/10/31 02:38:06;;;;;;;17.60;8.50;;;;;;;16.35;68.27;97484.84;234271;215;137802;-63
2023/10/31 02:43:09;;;;;;;19.80;8.20;;;;;;;16.42;68.13;97479.93;234323;215;149404;-63
2023/10/31 02:48:12;;;;;;;15.70;7.20;;;;;;;16.42;67.91;97478.69;234347;215;139472;-62
2023/10/31 02:53:16;;;;;;;15.40;6.80;;;;;;;16.38;67.90;97473.63;234332;215;139060;-63
2023/10/31 02:58:19;;;;;;;15.10;6.80;;;;;;;16.35;67.85;97466.63;234301;216;150826;-64
2023/10/31 03:03:22;;;;;;;21.50;8.90;;;;;;;16.36;67.51;97464.52;234382;215;138979;-64
2023/10/31 03:08:25;;;;;;;24.50;8.60;;;;;;;16.36;67.39;97466.70;234304;215;138183;-65
2023/10/31 03:13:28;;;;;;;15.10;5.60;;;;;;;16.32;67.37;97481.55;234266;216;149875;-64
2023/10/31 03:18:31;;;;;;;9.20;3.20;;;;;;;16.32;67.16;97496.79;234330;215;139057;-63
2023/10/31 03:23:35;;;;;;;12.60;4.80;;;;;;;16.30;67.08;97499.21;234298;215;139004;-64
2023/10/31 03:28:38;;;;;;;11.70;4.40;;;;;;;16.25;67.39;97496.65;234216;215;150443;-65
2023/10/31 03:33:42;;;;;;;17.40;3.90;;;;;;;16.23;67.64;97482.23;234344;215;138851;-64
2023/10/31 03:38:45;;;;;;;14.70;3.90;;;;;;;16.18;67.85;97467.94;234317;215;138810;-64
2023/10/31 03:43:48;;;;;;;10.50;3.90;;;;;;;16.11;67.86;97457.98;234243;215;149451;-65
2023/10/31 03:48:51;;;;;;;9.90;3.90;;;;;;;16.05;67.86;97438.09;234275;215;138860;-66
2023/10/31 03:53:55;;;;;;;9.70;3.70;;;;;;;16.11;67.17;97421.28;234320;215;138674;-66
2023/10/31 03:58:58;;;;;;;15.70;5.20;;;;;;;16.19;66.32;97429.35;234361;215;149819;-66
2023/10/31 04:04:02;;;;;;;22.40;7.70;;;;;;;16.25;65.71;97423.91;234224;215;140213;-66
2023/10/31 04:09:05;;;;;;;22.00;7.10;;;;;;;16.30;65.36;97426.13;234394;215;160197;-65
2023/10/31 04:14:09;;;;;;;19.60;6.60;;;;;;;16.31;64.82;97417.96;234265;215;151063;-66
2023/10/31 04:19:13;;;;;;;24.70;8.30;;;;;;;16.36;64.26;97413.55;234308;215;139557;-66
2023/10/31 04:24:16;;;;;;;22.70;9.00;;;;;;;16.38;64.09;97410.77;234280;215;138884;-66
2023/10/31 04:29:19;;;;;;;28.70;9.60;;;;;;;16.37;63.75;97396.47;234241;215;151402;-66
2023/10/31 04:34:22;;;;;;;25.30;9.50;;;;;;;16.40;63.43;97389.52;234217;215;138900;-66
2023/10/31 04:39:25;;;;;;;23.10;8.50;;;;;;;16.41;63.48;97385.98;234386;215;138677;-66
2023/10/31 04:44:28;;;;;;;21.80;8.40;;;;;;;16.41;63.26;97384.48;234329;215;149825;-65
2023/10/31 04:49:34;;;;;;;19.40;6.40;;;;;;;16.41;62.77;97378.03;234254;215;139688;-66
2023/10/31 04:54:37;;;;;;;252.60;199.40;;;;;;;16.35;62.96;97378.15;234291;215;137536;-65
2023/10/31 04:59:40;;;;;;;42.50;27.60;;;;;;;16.38;63.21;97370.39;234180;215;149966;-64
2023/10/31 05:04:44;;;;;;;12.50;5.20;;;;;;;16.42;63.09;97365.10;234261;215;139003;-65
2023/10/31 05:09:47;;;;;;;15.80;8.90;;;;;;;16.47;62.63;97364.44;234404;215;138144;-65
2023/10/31 05:14:50;;;;;;;7.10;2.40;;;;;;;16.59;61.59;97357.52;234274;215;150088;-65
2023/10/31 05:19:53;;;;;;;4.10;1.60;;;;;;;16.76;60.56;97351.39;234237;215;140215;-64
2023/10/31 05:24:57;;;;;;;58.50;38.30;;;;;;;16.95;59.55;97361.21;234252;215;136853;-65
2023/10/31 05:30:00;;;;;;;8.10;2.80;;;;;;;17.10;58.09;97374.19;234123;215;149372;-65
2023/10/31 05:35:04;;;;;;;8.30;1.80;;;;;;;17.27;57.23;97389.42;234272;215;140380;-66
2023/10/31 05:40:07;;;;;;;5.90;2.10;;;;;;;17.38;56.87;97384.69;234292;215;136962;-64
2023/10/31 05:45:11;;;;;;;3.70;1.60;;;;;;;17.46;56.12;97379.63;234356;215;149257;-65
2023/10/31 05:50:14;;;;;;;3.30;1.30;;;;;;;17.54;55.25;97372.45;234253;215;139042;-65
2023/10/31 05:55:17;;;;;;;4.90;1.90;;;;;;;17.62;54.39;97362.88;234311;215;136791;-66
2023/10/31 06:00:20;;;;;;;4.80;1.80;;;;;;;17.77;53.22;97362.14;234254;215;149281;-66
2023/10/31 06:05:23;;;;;;;11.40;2.20;;;;;;;17.95;52.37;97362.02;234245;215;140305;-65
2023/10/31 06:10:27;;;;;;;10.50;2.20;;;;;;;18.18;51.24;97358.63;234362;215;137326;-63
2023/10/31 06:15:30;;;;;;;11.80;6.80;;;;;;;18.37;50.26;97364.30;234393;215;149585;-64
2023/10/31 06:20:34;;;;;;;10.00;1.90;;;;;;;18.56;49.50;97368.25;234232;215;138809;-65
2023/10/31 06:25:38;;;;;;;7.10;1.80;;;;;;;18.73;48.42;97375.98;234332;216;138303;-65
2023/10/31 06:30:41;;;;;;;6.80;1.60;;;;;;;18.95;47.70;97361.77;234237;215;149197;-64
2023/10/31 06:35:45;;;;;;;5.00;1.30;;;;;;;19.16;46.99;97351.80;234228;215;139313;-64
2023/10/31 06:40:48;;;;;;;9.20;1.80;;;;;;;19.33;46.91;97351.10;234273;216;138112;-65
2023/10/31 06:45:51;;;;;;;6.40;1.60;;;;;;;19.47;46.54;97342.19;234292;215;150130;-65
2023/10/31 06:50:54;;;;;;;10.30;1.40;;;;;;;19.55;45.99;97345.84;234209;215;140184;-64
2023/10/31 06:55:57;;;;;;;4.10;1.40;;;;;;;19.61;45.86;97351.30;234321;215;138436;-64
2023/10/31 07:01:01;;;;;;;5.20;1.60;;;;;;;19.66;45.81;97357.30;234229;215;150530;-63
2023/10/31 07:06:07;;;;;;;4.00;1.40;;;;;;;19.69;45.54;97365.30;234143;215;139293;-67
2023/10/31 07:11:11;;;;;;;4.30;1.30;;;;;;;19.75;44.88;97356.88;234232;215;137226;-63
2023/10/31 07:16:15;;;;;;;7.80;1.70;;;;;;;19.76;45.03;97355.90;234274;215;150918;-64
2023/10/31 07:21:19;;;;;;;7.50;1.50;;;;;;;19.78;45.02;97373.52;234345;216;138778;-63
2023/10/31 07:26:23;;;;;;;6.40;1.50;;;;;;;19.79;45.26;97377.38;234289;215;137921;-63
2023/10/31 07:31:26;;;;;;;12.80;1.90;;;;;;;19.79;45.60;97382.54;234352;215;149193;-64
2023/10/31 07:36:32;;;;;;;47.60;35.20;;;;;;;19.81;45.83;97364.73;234186;215;139541;-65
2023/10/31 07:41:35;;;;;;;7.10;2.40;;;;;;;19.82;45.82;97390.08;234139;215;137358;-63
2023/10/31 07:46:38;;;;;;;5.50;1.40;;;;;;;19.81;45.54;97384.63;234137;216;150047;-65
2023/10/31 07:51:42;;;;;;;4.20;1.40;;;;;;;19.80;45.42;97397.23;234259;215;140046;-66
2023/10/31 07:56:45;;;;;;;5.70;1.60;;;;;;;19.79;45.73;97395.00;234124;215;137424;-66
2023/10/31 08:01:50;;;;;;;5.10;1.50;;;;;;;19.77;46.11;97400.51;234176;215;150117;-66
2023/10/31 08:06:55;;;;;;;4.10;1.20;;;;;;;19.73;46.37;97390.95;234155;215;139521;-65
2023/10/31 08:11:58;;;;;;;5.60;1.90;;;;;;;19.71;46.76;97391.68;234272;215;139240;-66
2023/10/31 08:17:02;;;;;;;4.00;1.60;;;;;;;19.70;47.01;97401.77;234265;216;150275;-65
2023/10/31 08:22:05;;;;;;;7.90;1.60;;;;;;;19.72;47.09;97393.80;234190;216;139654;-64
2023/10/31 08:27:08;;;;;;;19.70;15.30;;;;;;;19.73;47.79;97415.70;234242;215;138421;-66
2023/10/31 08:32:11;;;;;;;14.30;8.20;;;;;;;19.78;47.88;97419.79;234218;215;149117;-65
2023/10/31 08:37:15;;;;;;;5.80;1.90;;;;;;;19.80;48.12;97412.66;234201;216;139085;-65
2023/10/31 08:42:18;;;;;;;4.50;1.70;;;;;;;19.82;48.22;97407.94;234190;215;138299;-65
2023/10/31 08:47:21;;;;;;;5.60;1.70;;;;;;;19.83;48.06;97410.88;234165;216;149750;-65
2023/10/31 08:52:24;;;;;;;4.00;1.70;;;;;;;19.83;48.50;97416.45;234177;215;139821;-66
2023/10/31 08:57:27;;;;;;;4.30;1.80;;;;;;;19.83;48.77;97424.11;234356;215;138198;-65
2023/10/31 09:02:30;;;;;;;5.40;1.60;;;;;;;19.82;48.74;97433.86;234148;216;149554;-65
2023/10/31 09:07:33;;;;;;;3.50;1.50;;;;;;;19.79;49.01;97434.23;234174;215;138790;-65
2023/10/31 09:12:37;;;;;;;7.60;1.70;;;;;;;19.78;49.22;97441.95;234147;216;137694;-66
2023/10/31 09:17:40;;;;;;;3.80;1.70;;;;;;;19.77;49.33;97445.50;234262;216;149686;-66
2023/10/31 09:22:43;;;;;;;3.90;1.70;;;;;;;19.74;49.39;97454.30;234160;216;138746;-65
2023/10/31 09:27:46;;;;;;;4.10;1.60;;;;;;;19.72;49.73;97449.84;234357;215;136997;-65
2023/10/31 09:32:49;;;;;;;6.30;2.20;;;;;;;19.75;50.04;97459.70;234198;215;149197;-67
2023/10/31 09:37:53;;;;;;;9.30;2.20;;;;;;;19.77;50.31;97463.27;234151;216;139943;-66
2023/10/31 09:42:56;;;;;;;8.20;3.50;;;;;;;19.78;50.43;97465.69;234219;216;137903;-64
2023/10/31 09:48:01;;;;;;;9.00;2.30;;;;;;;19.76;50.51;97482.27;233974;215;150481;-64
2023/10/31 09:53:05;;;;;;;6.90;1.80;;;;;;;19.77;50.78;97486.73;234059;216;140020;-63
2023/10/31 09:58:09;;;;;;;8.00;2.20;;;;;;;19.78;50.79;97483.50;234182;215;138788;-64
2023/10/31 10:03:13;;;;;;;7.90;2.30;;;;;;;19.81;51.58;97490.51;234338;216;150523;-64
2023/10/31 10:08:17;;;;;;;4.90;2.20;;;;;;;19.79;51.03;97501.16;234109;216;139915;-59
2023/10/31 10:13:21;;;;;;;7.30;2.30;;;;;;;19.71;50.63;97501.35;234148;216;137692;-58
2023/10/31 10:18:28;;;;;;;53.80;45.40;;;;;;;19.64;50.65;97503.44;234191;216;149031;-59
2023/10/31 10:23:33;;;;;;;10.00;2.70;;;;;;;19.61;50.63;97504.49;234077;215;138857;-63
2023/10/31 10:28:38;;;;;;;7.30;2.40;;;;;;;19.55;50.65;97516.67;234210;216;137296;-57
2023/10/31 10:33:41;;;;;;;84.80;56.10;;;;;;;19.52;50.73;97512.58;234332;216;149609;-63
2023/10/31 10:38:48;;;;;;;7.40;4.00;;;;;;;19.44;50.49;97511.84;234107;216;139745;-58
2023/10/31 10:44:05;;;;;;;7.40;2.80;;;;;;;19.36;50.56;97511.16;234203;216;140752;-63
2023/10/31 10:49:11;;;;;;;6.90;1.90;;;;;;;19.26;50.51;97505.42;234168;216;149866;-62
2023/10/31 10:54:37;;;;;;;5.30;2.10;;;;;;;19.18;50.63;97494.88;234149;215;138786;-60
2023/10/31 10:59:50;;;;;;;;;;;;;;;19.14;50.80;97502.67;234218;216;140558;-59
2023/10/31 11:04:54;;;;;;;9.30;2.40;;;;;;;19.11;50.84;97517.36;234369;215;150129;-60
2023/10/31 11:10:01;;;;;;;5.00;2.00;;;;;;;19.10;51.33;97536.80;234039;216;138816;-63
2023/10/31 11:15:06;;;;;;;22.50;14.60;;;;;;;19.05;51.24;97545.02;234315;216;138286;-60
2023/10/31 11:20:11;;;;;;;8.80;2.80;;;;;;;19.00;51.21;97541.61;233905;215;150512;-59
2023/10/31 11:25:23;;;;;;;6.60;2.10;;;;;;;18.97;51.37;97541.43;234102;215;139179;-61
2023/10/31 11:30:34;;;;;;;5.90;1.80;;;;;;;18.94;51.35;97542.75;234179;215;137923;-62
2023/10/31 11:35:39;;;;;;;7.70;1.70;;;;;;;18.88;51.24;97542.17;234092;216;152278;-61
2023/10/31 11:40:48;;;;;;;3.10;1.60;;;;;;;18.84;51.64;97535.14;234148;215;138680;-61
2023/10/31 11:45:52;;;;;;;3.00;1.80;;;;;;;18.78;51.56;97537.65;234298;215;137029;-61
2023/10/31 11:50:57;;;;;;;4.90;1.90;;;;;;;18.71;51.73;97539.17;234267;215;150484;-59
2023/10/31 11:56:02;;;;;;;4.10;1.70;;;;;;;18.64;51.77;97541.23;234076;215;141211;-61
2023/10/31 12:01:07;;;;;;;8.10;1.80;;;;;;;18.59;52.05;97533.43;234206;215;137829;-62
2023/10/31 12:06:10;;;;;;;4.50;2.00;;;;;;;18.55;52.28;97544.64;234089;216;149737;-62
2023/10/31 12:11:16;;;;;;;7.20;1.90;;;;;;;18.50;52.40;97539.48;234120;215;138977;-61
2023/10/31 12:16:19;;;;;;;4.80;1.80;;;;;;;18.50;52.71;97524.38;234076;215;137753;-62
2023/10/31 12:21:46;;;;;;;5.30;2.20;;;;;;;18.52;52.71;97515.21;234257;215;150922;-60
2023/10/31 12:26:51;;;;;;;4.20;2.10;;;;;;;18.51;52.45;97493.98;234011;215;140985;-60
2023/10/31 12:31:57;;;;;;;28.00;21.60;;;;;;;18.49;52.58;97476.78;234168;215;140694;-59
2023/10/31 12:37:03;;;;;;;7.00;2.30;;;;;;;18.54;52.72;97496.81;233935;215;150078;-58
2023/10/31 12:42:06;;;;;;;;;;;;;;;18.54;52.68;97505.03;234076;215;151778;-60
2023/10/31 12:47:09;;;;;;;5.30;2.10;;;;;;;18.54;52.66;97506.29;234132;215;138078;-59
2023/10/31 12:52:12;;;;;;;6.10;1.80;;;;;;;18.54;52.62;97511.59;234163;215;149784;-59
2023/10/31 12:57:16;;;;;;;4.70;1.90;;;;;;;18.55;52.97;97492.17;234257;215;140632;-59
2023/10/31 13:02:19;;;;;;;3.80;2.10;;;;;;;18.63;53.08;97499.48;233929;213;138687;-57
2023/10/31 13:07:29;;;;;;;5.40;1.90;;;;;;;18.66;52.85;97514.94;233972;215;149364;-61
2023/10/31 13:12:33;;;;;;;3.90;1.80;;;;;;;18.67;53.22;97516.80;234187;215;139008;-61
2023/10/31 13:17:37;;;;;;;4.50;1.80;;;;;;;18.65;53.07;97507.27;234139;215;137890;-59
2023/10/31 13:22:42;;;;;;;4.90;2.00;;;;;;;18.65;53.23;97499.09;234053;215;149983;-61
2023/10/31 13:27:50;;;;;;;8.20;2.10;;;;;;;18.62;53.23;97498.71;234161;215;139541;-60
2023/10/31 13:32:54;;;;;;;6.30;2.00;;;;;;;18.57;53.15;97504.15;234131;215;137912;-60
2023/10/31 13:37:57;;;;;;;5.80;2.30;;;;;;;18.53;53.39;97497.12;234166;215;149223;-60
2023/10/31 13:43:01;;;;;;;4.20;1.80;;;;;;;18.49;53.56;97496.17;233989;215;139759;-60
2023/10/31 13:48:04;;;;;;;6.70;2.40;;;;;;;18.46;53.68;97500.44;234238;215;138762;-60
2023/10/31 13:53:07;;;;;;;8.30;2.50;;;;;;;18.43;54.47;97505.59;234194;215;149157;-61
2023/10/31 13:58:11;;;;;;;4.50;2.30;;;;;;;18.37;55.76;97521.51;234209;215;140253;-60
2023/10/31 14:03:15;;;;;;;88.70;74.50;;;;;;;18.27;57.41;97517.86;234314;215;137423;-59
2023/10/31 14:08:19;;;;;;;9.40;3.70;;;;;;;18.23;58.29;97522.98;234237;215;150108;-58
2023/10/31 14:13:23;;;;;;;4.10;2.30;;;;;;;18.10;58.98;97506.43;234206;215;138964;-57
2023/10/31 14:18:26;;;;;;;7.40;2.50;;;;;;;17.93;60.60;97482.93;234218;215;137046;-58
2023/10/31 14:23:30;;;;;;;7.70;3.00;;;;;;;17.69;63.28;97489.26;234258;215;150500;-58
2023/10/31 14:28:34;;;;;;;6.10;2.60;;;;;;;17.48;64.73;97492.37;234120;215;138848;-59
2023/10/31 14:33:37;;;;;;;6.30;2.80;;;;;;;17.36;65.34;97506.14;234358;215;139465;-59
2023/10/31 14:38:41;;;;;;;6.30;2.80;;;;;;;17.43;65.22;97520.78;234245;215;150543;-58
2023/10/31 14:43:44;;;;;;;7.50;3.40;;;;;;;17.48;65.47;97514.63;234220;215;139299;-58
2023/10/31 14:48:47;;;;;;;6.40;2.80;;;;;;;17.46;65.29;97527.21;234270;215;137802;-57
2023/10/31 14:53:50;;;;;;;7.10;3.20;;;;;;;17.46;65.47;97537.44;234248;215;149796;-58
2023/10/31 14:58:53;;;;;;;11.70;2.90;;;;;;;17.38;66.20;97535.52;234308;215;138718;-58
2023/10/31 15:03:56;;;;;;;12.10;2.90;;;;;;;17.23;66.54;97552.02;234267;215;137137;-57
2023/10/31 15:09:00;;;;;;;6.90;3.10;;;;;;;17.14;67.28;97575.13;234303;215;149356;-59
2023/10/31 15:14:04;;;;;;;7.00;2.90;;;;;;;17.08;67.66;97590.02;234233;215;139008;-58
2023/10/31 15:19:07;;;;;;;122.90;92.70;;;;;;;16.98;68.56;97584.06;234294;215;138639;-60
2023/10/31 15:24:12;;;;;;;5.40;3.40;;;;;;;16.90;69.17;97568.66;234212;215;149877;-58
2023/10/31 15:29:15;;;;;;;6.30;3.10;;;;;;;16.80;69.27;97555.13;234284;215;140010;-59
2023/10/31 15:34:19;;;;;;;5.90;3.10;;;;;;;16.68;69.69;97535.98;234249;215;137593;-59
2023/10/31 15:39:23;;;;;;;5.70;3.10;;;;;;;16.60;69.97;97550.16;234310;215;150320;-60
2023/10/31 15:44:26;;;;;;;4.20;2.80;;;;;;;16.47;70.31;97566.73;234087;215;139666;-59
2023/10/31 15:49:29;;;;;;;4.50;3.00;;;;;;;16.38;70.58;97573.34;234329;215;137379;-59
2023/10/31 15:54:32;;;;;;;6.50;3.00;;;;;;;16.34;70.87;97581.63;234281;215;149981;-58
2023/10/31 15:59:36;;;;;;;42.20;33.70;;;;;;;16.32;71.39;97594.34;234223;215;138694;-59
2023/10/31 16:04:39;;;;;;;12.60;7.50;;;;;;;16.32;71.66;97600.75;234328;215;138127;-58
2023/10/31 16:09:43;;;;;;;6.20;3.40;;;;;;;16.40;71.55;97607.47;234418;215;149424;-59
2023/10/31 16:14:46;;;;;;;6.70;3.40;;;;;;;16.48;71.40;97616.06;234078;215;139291;-59
2023/10/31 16:19:50;;;;;;;7.00;2.80;;;;;;;16.55;71.12;97627.82;234104;215;138073;-60
2023/10/31 16:24:53;;;;;;;4.80;2.80;;;;;;;16.49;71.08;97627.98;234281;215;151143;-59
2023/10/31 16:29:56;;;;;;;6.20;3.50;;;;;;;16.39;71.22;97628.04;234265;215;140143;-58
2023/10/31 16:34:59;;;;;;;4.10;3.00;;;;;;;16.33;71.65;97620.59;234231;215;138152;-59
2023/10/31 16:40:04;;;;;;;4.10;2.70;;;;;;;16.22;71.81;97623.16;234255;215;149733;-57
2023/10/31 16:45:07;;;;;;;5.60;3.20;;;;;;;16.13;71.93;97639.02;234415;215;138724;-59
2023/10/31 16:50:11;;;;;;;84.80;62.30;;;;;;;16.08;72.18;97651.75;234226;215;137952;-60
2023/10/31 16:55:14;;;;;;;7.40;5.10;;;;;;;16.11;72.73;97650.85;234218;215;150045;-62
2023/10/31 17:00:17;;;;;;;7.70;3.20;;;;;;;16.23;72.11;97660.88;234203;215;140280;-61
2023/10/31 17:05:20;;;;;;;4.40;2.90;;;;;;;16.23;71.68;97661.56;234238;215;136971;-62
2023/10/31 17:10:24;;;;;;;4.20;3.10;;;;;;;16.18;71.55;97661.94;234177;215;150371;-62
2023/10/31 17:15:27;;;;;;;5.80;3.20;;;;;;;16.10;71.85;97655.04;234313;215;138923;-61
2023/10/31 17:20:30;;;;;;;3.40;2.90;;;;;;;15.99;72.09;97666.67;234267;215;137373;-61
2023/10/31 17:25:33;;;;;;;5.60;3.00;;;;;;;15.91;72.13;97677.66;234241;215;149066;-61
2023/10/31 17:30:36;;;;;;;4.10;2.80;;;;;;;15.95;72.31;97685.16;234276;215;138914;-62
2023/10/31 17:35:40;;;;;;;6.00;4.10;;;;;;;15.96;72.03;97697.75;234309;215;138167;-61
2023/10/31 17:40:44;;;;;;;5.10;3.70;;;;;;;15.93;72.26;97710.20;234288;215;149102;-59
2023/10/31 17:45:47;;;;;;;7.00;3.80;;;;;;;15.84;72.52;97724.17;234285;215;139493;-61
2023/10/31 17:50:51;;;;;;;5.50;4.00;;;;;;;15.80;72.68;97727.52;234030;215;137304;-58
2023/10/31 17:55:54;;;;;;;5.40;3.50;;;;;;;15.76;72.57;97728.74;234197;215;150265;-59
2023/10/31 18:00:57;;;;;;;237.90;198.40;;;;;;;15.74;73.42;97736.57;234286;215;138818;-58
2023/10/31 18:06:01;;;;;;;6.30;4.00;;;;;;;15.94;73.11;97752.33;234147;215;139042;-59
2023/10/31 18:11:05;;;;;;;5.20;3.50;;;;;;;16.10;71.65;97758.03;234248;215;149102;-59
2023/10/31 18:16:08;;;;;;;5.90;3.90;;;;;;;16.08;71.23;97761.95;234059;215;139248;-60
2023/10/31 18:21:12;;;;;;;4.60;3.40;;;;;;;16.10;70.94;97767.07;234319;215;138096;-59
2023/10/31 18:26:16;;;;;;;5.40;4.10;;;;;;;16.12;70.62;97776.92;234128;215;149465;-61
2023/10/31 18:31:19;;;;;;;5.20;4.10;;;;;;;16.17;70.41;97788.06;234110;215;139054;-60
2023/10/31 18:36:25;;;;;;;6.30;4.60;;;;;;;16.24;70.42;97801.81;234165;215;138227;-60
2023/10/31 18:41:40;;;;;;;5.90;3.90;;;;;;;16.30;70.32;97806.33;233813;215;149873;-55
2023/10/31 18:46:51;;;;;;;5.60;3.60;;;;;;;16.27;69.92;97814.66;234171;215;139179;-59
2023/10/31 18:51:54;;;;;;;6.10;4.00;;;;;;;16.24;69.53;97817.34;234384;215;137211;-61
2023/10/31 18:56:58;;;;;;;4.60;3.80;;;;;;;16.18;69.68;97828.40;234286;215;149642;-57
2023/10/31 19:02:01;;;;;;;3.80;3.10;;;;;;;16.13;69.64;97841.55;234198;215;139802;-61
2023/10/31 19:07:05;;;;;;;94.30;83.60;;;;;;;16.07;69.13;97853.27;234234;215;138391;-54
2023/10/31 19:12:08;;;;;;;6.30;4.20;;;;;;;16.13;68.75;97858.06;234149;215;149209;-59
2023/10/31 19:17:11;;;;;;;3.30;2.20;;;;;;;16.11;67.81;97866.63;233945;216;139959;-59
2023/10/31 19:22:14;;;;;;;4.10;2.30;;;;;;;15.97;67.35;97878.50;233897;215;137225;-61
2023/10/31 19:27:18;;;;;;;3.80;2.40;;;;;;;15.78;67.39;97888.46;234364;215;149952;-61
2023/10/31 19:32:21;;;;;;;3.20;2.30;;;;;;;15.68;67.48;97903.44;234185;215;139303;-62
2023/10/31 19:37:25;;;;;;;4.70;2.60;;;;;;;15.62;67.76;97916.90;234109;215;138823;-61
2023/10/31 19:42:28;;;;;;;4.80;3.30;;;;;;;15.59;68.16;97922.58;234206;216;150249;-61
2023/10/31 19:47:33;;;;;;;9.50;3.80;;;;;;;15.60;68.57;97927.50;234171;215;139015;-60
2023/10/31 19:52:36;;;;;;;4.70;2.80;;;;;;;15.57;67.89;97936.36;234152;215;136849;-60
2023/10/31 19:57:39;;;;;;;4.20;2.70;;;;;;;15.27;68.33;97941.84;234285;215;149895;-61
2023/10/31 20:02:43;;;;;;;4.40;2.90;;;;;;;15.05;68.89;97941.10;234197;215;139952;-60
2023/10/31 20:07:50;;;;;;;4.10;2.90;;;;;;;14.78;69.41;97952.34;234234;215;138526;-60
2023/10/31 20:12:54;;;;;;;5.30;2.60;;;;;;;14.58;69.73;97959.65;234199;215;149336;-59
2023/10/31 20:17:57;;;;;;;5.10;3.00;;;;;;;14.39;70.06;97963.40;233760;215;138841;-61
2023/10/31 20:23:00;;;;;;;5.00;3.00;;;;;;;14.19;70.49;97960.13;234183;215;137877;-60
2023/10/31 20:28:04;;;;;;;4.70;2.90;;;;;;;14.09;70.78;97970.62;234259;215;149568;-61
2023/10/31 20:33:07;;;;;;;5.00;3.00;;;;;;;13.97;70.99;97978.52;233811;215;138815;-59
2023/10/31 20:38:10;;;;;;;4.60;2.80;;;;;;;13.84;71.10;97992.27;234271;215;137298;-61
2023/10/31 20:43:13;;;;;;;4.00;2.60;;;;;;;13.80;70.95;97996.33;234267;215;149909;-59
2023/10/31 20:48:17;;;;;;;4.30;3.00;;;;;;;13.75;70.86;97995.90;234208;215;139716;-60
2023/10/31 20:53:20;;;;;;;5.10;2.90;;;;;;;13.66;71.11;97996.23;234319;215;138869;-60
2023/10/31 20:58:24;;;;;;;6.10;3.40;;;;;;;13.65;71.25;98005.61;234280;215;149509;-60
2023/10/31 21:03:29;;;;;;;5.40;3.40;;;;;;;13.65;71.36;98010.02;234340;215;140037;-60
2023/10/31 21:08:32;;;;;;;5.90;3.40;;;;;;;13.66;71.39;98004.41;234260;215;138318;-62
2023/10/31 21:13:35;;;;;;;4.70;3.20;;;;;;;13.64;71.45;98004.95;234335;215;149213;-61
2023/10/31 21:18:39;;;;;;;5.80;3.50;;;;;;;13.62;71.86;98017.07;233105;215;141425;-61
2023/10/31 21:23:42;;;;;;;6.70;3.50;;;;;;;13.63;72.04;98018.45;234228;215;139222;-61
2023/10/31 21:28:46;;;;;;;7.30;4.00;;;;;;;13.63;72.21;98026.65;234244;215;150171;-61
2023/10/31 21:33:49;;;;;;;7.30;4.50;;;;;;;13.56;72.23;98026.77;234423;215;138913;-60
2023/10/31 21:38:54;;;;;;;7.60;5.00;;;;;;;13.46;72.55;98025.98;234281;215;140237;-61
2023/10/31 21:43:57;;;;;;;7.80;5.20;;;;;;;13.38;72.66;98031.58;234242;215;149976;-62
2023/10/31 21:49:00;;;;;;;9.00;4.80;;;;;;;13.30;73.00;98034.38;233573;213;139633;-61
2023/10/31 21:54:03;;;;;;;7.20;4.70;;;;;;;13.18;73.37;98037.73;234374;215;137959;-62
2023/10/31 21:59:06;;;;;;;7.60;5.00;;;;;;;13.14;73.81;98045.04;233943;215;149716;-61
2023/10/31 22:04:11;;;;;;;6.90;5.00;;;;;;;13.19;73.91;98056.01;234260;215;140085;-61
2023/10/31 22:09:15;;;;;;;7.80;4.70;;;;;;;13.25;73.75;98060.14;234424;215;137016;-61
2023/10/31 22:14:18;;;;;;;7.00;4.30;;;;;;;13.28;73.42;98065.93;234276;215;149598;-62
2023/10/31 22:19:21;;;;;;;6.60;4.60;;;;;;;13.23;73.20;98066.71;234249;215;139177;-62
2023/10/31 22:24:24;;;;;;;7.80;4.00;;;;;;;13.12;73.29;98070.40;233940;215;136889;-61
2023/10/31 22:29:28;;;;;;;6.10;3.70;;;;;;;13.09;73.48;98074.95;234139;215;152573;-59
2023/10/31 22:34:32;;;;;;;6.80;3.60;;;;;;;13.08;73.40;98082.45;234290;215;139338;-59
2023/10/31 22:39:36;;;;;;;5.80;3.70;;;;;;;13.10;73.26;98089.07;234438;215;137284;-59
2023/10/31 22:44:40;;;;;;;5.40;4.10;;;;;;;13.04;73.40;98104.50;234215;215;149861;-61
2023/10/31 22:49:43;;;;;;;6.20;4.20;;;;;;;12.99;73.67;98111.50;234218;215;139467;-60
2023/10/31 22:54:46;;;;;;;7.40;3.90;;;;;;;13.00;73.57;98121.80;233987;215;137688;-59
2023/10/31 22:59:49;;;;;;;6.00;4.00;;;;;;;12.96;73.74;98128.71;233755;215;150616;-62
2023/10/31 23:04:53;;;;;;;7.00;4.00;;;;;;;13.01;73.87;98135.08;234086;215;138928;-62
2023/10/31 23:09:56;;;;;;;5.80;3.90;;;;;;;13.07;73.95;98143.06;234133;215;138177;-61
2023/10/31 23:15:00;;;;;;;7.40;4.30;;;;;;;13.10;73.77;98155.50;234411;215;149315;-60
2023/10/31 23:20:06;;;;;;;6.20;4.00;;;;;;;13.06;73.87;98160.41;234215;215;139645;-61
2023/10/31 23:25:10;;;;;;;5.40;3.90;;;;;;;12.98;73.98;98166.80;234224;215;137953;-61
2023/10/31 23:30:14;;;;;;;7.60;3.80;;;;;;;12.93;74.13;98169.02;234297;215;149490;-60